sensor_id;sensor_type;location;lat;lon;timestamp;P1;durP1;ratioP1;P2;durP2;ratioP2
59263;SDS011;45030;42.720;23.344;2023-03-01T00:01:25;5.95;;;3.60;;
59263;SDS011;45030;42.720;23.344;2023-03-01T00:03:51;6.20;;;3.88;;
59263;SDS011;45030;42.720;23.344;2023-03-01T00:06:17;4.75;;;3.17;;
59263;SDS011;45030;42.720;23.344;2023-03-01T00:08:42;4.75;;;3.15;;
59263;SDS011;45030;42.720;23.344;2023-03-01T00:11:10;4.82;;;3.72;;
59263;SDS011;45030;42.720;23.344;2023-03-01T00:13:35;5.18;;;2.95;;
59263;SDS011;45030;42.720;23.344;2023-03-01T00:16:02;5.43;;;2.97;;
59263;SDS011;45030;42.720;23.344;2023-03-01T00:18:27;3.83;;;3.03;;
59263;SDS011;45030;42.720;23.344;2023-03-01T00:20:53;3.92;;;3.22;;
59263;SDS011;45030;42.720;23.344;2023-03-01T00:23:18;4.38;;;3.30;;
59263;SDS011;45030;42.720;23.344;2023-03-01T00:25:44;4.50;;;2.95;;
59263;SDS011;45030;42.720;23.344;2023-03-01T00:28:09;4.97;;;3.28;;
59263;SDS011;45030;42.720;23.344;2023-03-01T00:30:34;3.95;;;2.60;;
59263;SDS011;45030;42.720;23.344;2023-03-01T00:32:59;3.13;;;2.60;;
59263;SDS011;45030;42.720;23.344;2023-03-01T00:35:25;4.38;;;3.13;;
59263;SDS011;45030;42.720;23.344;2023-03-01T00:37:50;4.70;;;3.10;;
59263;SDS011;45030;42.720;23.344;2023-03-01T00:40:22;4.18;;;3.00;;
59263;SDS011;45030;42.720;23.344;2023-03-01T00:42:47;6.00;;;2.85;;
59263;SDS011;45030;42.720;23.344;2023-03-01T00:45:13;5.10;;;3.17;;
59263;SDS011;45030;42.720;23.344;2023-03-01T00:47:38;4.28;;;3.13;;
59263;SDS011;45030;42.720;23.344;2023-03-01T00:50:03;4.53;;;3.30;;
59263;SDS011;45030;42.720;23.344;2023-03-01T00:52:29;6.10;;;3.50;;
59263;SDS011;45030;42.720;23.344;2023-03-01T00:54:54;5.32;;;3.65;;
59263;SDS011;45030;42.720;23.344;2023-03-01T00:57:19;4.75;;;3.97;;
59263;SDS011;45030;42.720;23.344;2023-03-01T00:59:44;7.70;;;4.53;;
59263;SDS011;45030;42.720;23.344;2023-03-01T01:02:10;4.80;;;4.10;;
59263;SDS011;45030;42.720;23.344;2023-03-01T01:04:35;6.80;;;4.03;;
59263;SDS011;45030;42.720;23.344;2023-03-01T01:07:00;7.25;;;4.30;;
59263;SDS011;45030;42.720;23.344;2023-03-01T01:09:25;7.32;;;4.03;;
59263;SDS011;45030;42.720;23.344;2023-03-01T01:11:51;4.80;;;3.30;;
59263;SDS011;45030;42.720;23.344;2023-03-01T01:14:16;3.65;;;3.00;;
59263;SDS011;45030;42.720;23.344;2023-03-01T01:16:42;5.38;;;3.05;;
59263;SDS011;45030;42.720;23.344;2023-03-01T01:19:08;4.03;;;2.80;;
59263;SDS011;45030;42.720;23.344;2023-03-01T01:21:34;3.85;;;3.10;;
59263;SDS011;45030;42.720;23.344;2023-03-01T01:23:59;5.85;;;3.53;;
59263;SDS011;45030;42.720;23.344;2023-03-01T01:26:25;3.40;;;2.63;;
59263;SDS011;45030;42.720;23.344;2023-03-01T01:28:51;4.20;;;2.83;;
59263;SDS011;45030;42.720;23.344;2023-03-01T01:31:16;3.72;;;2.70;;
59263;SDS011;45030;42.720;23.344;2023-03-01T01:33:42;4.57;;;2.80;;
59263;SDS011;45030;42.720;23.344;2023-03-01T01:36:07;3.58;;;2.38;;
59263;SDS011;45030;42.720;23.344;2023-03-01T01:38:33;3.58;;;2.50;;
59263;SDS011;45030;42.720;23.344;2023-03-01T01:40:58;3.38;;;3.08;;
59263;SDS011;45030;42.720;23.344;2023-03-01T01:43:32;3.15;;;2.85;;
59263;SDS011;45030;42.720;23.344;2023-03-01T01:48:23;4.20;;;3.28;;
59263;SDS011;45030;42.720;23.344;2023-03-01T01:50:58;4.13;;;3.05;;
59263;SDS011;45030;42.720;23.344;2023-03-01T01:53:23;2.85;;;2.35;;
59263;SDS011;45030;42.720;23.344;2023-03-01T01:55:51;3.95;;;3.05;;
59263;SDS011;45030;42.720;23.344;2023-03-01T01:58:18;2.90;;;2.60;;
59263;SDS011;45030;42.720;23.344;2023-03-01T02:00:44;4.03;;;3.10;;
59263;SDS011;45030;42.720;23.344;2023-03-01T02:03:11;3.90;;;2.83;;
59263;SDS011;45030;42.720;23.344;2023-03-01T02:08:14;3.03;;;2.17;;
59263;SDS011;45030;42.720;23.344;2023-03-01T02:10:42;3.53;;;2.90;;
59263;SDS011;45030;42.720;23.344;2023-03-01T02:13:07;3.75;;;2.70;;
59263;SDS011;45030;42.720;23.344;2023-03-01T02:15:33;3.67;;;3.13;;
59263;SDS011;45030;42.720;23.344;2023-03-01T02:17:59;2.80;;;2.50;;
59263;SDS011;45030;42.720;23.344;2023-03-01T02:23:05;3.70;;;3.25;;
59263;SDS011;45030;42.720;23.344;2023-03-01T02:25:35;3.45;;;2.97;;
59263;SDS011;45030;42.720;23.344;2023-03-01T02:30:41;4.68;;;3.58;;
59263;SDS011;45030;42.720;23.344;2023-03-01T02:33:26;4.63;;;3.50;;
59263;SDS011;45030;42.720;23.344;2023-03-01T02:35:51;3.80;;;2.85;;
59263;SDS011;45030;42.720;23.344;2023-03-01T02:38:18;4.22;;;3.35;;
59263;SDS011;45030;42.720;23.344;2023-03-01T02:40:43;3.47;;;2.70;;
59263;SDS011;45030;42.720;23.344;2023-03-01T02:43:09;3.33;;;2.50;;
59263;SDS011;45030;42.720;23.344;2023-03-01T02:45:35;3.42;;;2.58;;
59263;SDS011;45030;42.720;23.344;2023-03-01T02:48:00;3.05;;;2.28;;
59263;SDS011;45030;42.720;23.344;2023-03-01T02:52:57;4.18;;;2.78;;
59263;SDS011;45030;42.720;23.344;2023-03-01T02:55:26;4.15;;;2.95;;
59263;SDS011;45030;42.720;23.344;2023-03-01T02:57:52;3.40;;;2.30;;
59263;SDS011;45030;42.720;23.344;2023-03-01T03:00:19;4.13;;;2.30;;
59263;SDS011;45030;42.720;23.344;2023-03-01T03:02:49;3.80;;;2.85;;
59263;SDS011;45030;42.720;23.344;2023-03-01T03:05:16;3.47;;;2.60;;
59263;SDS011;45030;42.720;23.344;2023-03-01T03:07:43;3.80;;;2.83;;
59263;SDS011;45030;42.720;23.344;2023-03-01T03:10:13;3.22;;;2.85;;
59263;SDS011;45030;42.720;23.344;2023-03-01T03:12:39;3.72;;;3.08;;
59263;SDS011;45030;42.720;23.344;2023-03-01T03:15:05;3.75;;;3.35;;
59263;SDS011;45030;42.720;23.344;2023-03-01T03:17:34;8.68;;;5.95;;
59263;SDS011;45030;42.720;23.344;2023-03-01T03:19:59;4.13;;;2.80;;
59263;SDS011;45030;42.720;23.344;2023-03-01T03:22:24;2.65;;;2.45;;
59263;SDS011;45030;42.720;23.344;2023-03-01T03:24:49;3.50;;;2.63;;
59263;SDS011;45030;42.720;23.344;2023-03-01T03:27:15;3.33;;;2.40;;
59263;SDS011;45030;42.720;23.344;2023-03-01T03:29:40;4.03;;;3.13;;
59263;SDS011;45030;42.720;23.344;2023-03-01T03:32:05;3.83;;;3.05;;
59263;SDS011;45030;42.720;23.344;2023-03-01T03:34:30;3.00;;;2.67;;
59263;SDS011;45030;42.720;23.344;2023-03-01T03:36:56;3.28;;;2.80;;
59263;SDS011;45030;42.720;23.344;2023-03-01T03:39:21;3.47;;;2.90;;
59263;SDS011;45030;42.720;23.344;2023-03-01T03:41:46;3.88;;;3.00;;
59263;SDS011;45030;42.720;23.344;2023-03-01T03:44:12;4.30;;;2.40;;
59263;SDS011;45030;42.720;23.344;2023-03-01T03:46:37;3.90;;;2.72;;
59263;SDS011;45030;42.720;23.344;2023-03-01T03:49:02;3.72;;;3.33;;
59263;SDS011;45030;42.720;23.344;2023-03-01T03:51:27;3.95;;;3.03;;
59263;SDS011;45030;42.720;23.344;2023-03-01T03:53:53;3.15;;;2.40;;
59263;SDS011;45030;42.720;23.344;2023-03-01T03:56:18;3.85;;;2.90;;
59263;SDS011;45030;42.720;23.344;2023-03-01T03:58:43;2.58;;;2.20;;
59263;SDS011;45030;42.720;23.344;2023-03-01T04:01:08;4.10;;;2.97;;
59263;SDS011;45030;42.720;23.344;2023-03-01T04:03:52;3.38;;;2.22;;
59263;SDS011;45030;42.720;23.344;2023-03-01T04:06:19;8.63;;;3.30;;
59263;SDS011;45030;42.720;23.344;2023-03-01T04:08:44;4.00;;;3.20;;
59263;SDS011;45030;42.720;23.344;2023-03-01T04:11:10;4.35;;;2.60;;
59263;SDS011;45030;42.720;23.344;2023-03-01T04:13:52;2.65;;;2.17;;
59263;SDS011;45030;42.720;23.344;2023-03-01T04:16:18;3.92;;;2.78;;
59263;SDS011;45030;42.720;23.344;2023-03-01T04:18:43;3.65;;;2.78;;
59263;SDS011;45030;42.720;23.344;2023-03-01T04:21:09;4.05;;;2.75;;
59263;SDS011;45030;42.720;23.344;2023-03-01T04:23:35;3.95;;;2.90;;
59263;SDS011;45030;42.720;23.344;2023-03-01T04:26:00;3.92;;;2.60;;
59263;SDS011;45030;42.720;23.344;2023-03-01T04:28:27;2.75;;;2.22;;
59263;SDS011;45030;42.720;23.344;2023-03-01T04:30:53;2.95;;;2.67;;
59263;SDS011;45030;42.720;23.344;2023-03-01T04:33:19;3.67;;;2.75;;
59263;SDS011;45030;42.720;23.344;2023-03-01T04:35:44;2.67;;;2.30;;
59263;SDS011;45030;42.720;23.344;2023-03-01T04:38:10;3.55;;;3.15;;
59263;SDS011;45030;42.720;23.344;2023-03-01T04:40:35;4.53;;;2.78;;
59263;SDS011;45030;42.720;23.344;2023-03-01T04:43:01;3.75;;;2.70;;
59263;SDS011;45030;42.720;23.344;2023-03-01T04:45:27;5.43;;;2.75;;
59263;SDS011;45030;42.720;23.344;2023-03-01T04:47:52;4.35;;;3.20;;
59263;SDS011;45030;42.720;23.344;2023-03-01T04:50:18;4.18;;;3.10;;
59263;SDS011;45030;42.720;23.344;2023-03-01T04:52:48;5.00;;;3.22;;
59263;SDS011;45030;42.720;23.344;2023-03-01T04:55:13;5.35;;;3.17;;
59263;SDS011;45030;42.720;23.344;2023-03-01T04:57:39;3.90;;;3.13;;
59263;SDS011;45030;42.720;23.344;2023-03-01T05:00:04;4.65;;;2.70;;
59263;SDS011;45030;42.720;23.344;2023-03-01T05:02:45;4.38;;;2.10;;
59263;SDS011;45030;42.720;23.344;2023-03-01T05:05:10;3.75;;;2.10;;
59263;SDS011;45030;42.720;23.344;2023-03-01T05:07:35;2.47;;;1.98;;
59263;SDS011;45030;42.720;23.344;2023-03-01T05:10:00;3.85;;;2.40;;
59263;SDS011;45030;42.720;23.344;2023-03-01T05:12:25;4.57;;;1.95;;
59263;SDS011;45030;42.720;23.344;2023-03-01T05:14:51;5.15;;;3.28;;
59263;SDS011;45030;42.720;23.344;2023-03-01T05:17:16;2.10;;;1.83;;
59263;SDS011;45030;42.720;23.344;2023-03-01T05:19:41;2.40;;;2.08;;
59263;SDS011;45030;42.720;23.344;2023-03-01T05:22:07;3.03;;;2.35;;
59263;SDS011;45030;42.720;23.344;2023-03-01T05:24:33;4.80;;;3.22;;
59263;SDS011;45030;42.720;23.344;2023-03-01T05:26:59;6.28;;;3.90;;
59263;SDS011;45030;42.720;23.344;2023-03-01T05:29:25;4.47;;;3.08;;
59263;SDS011;45030;42.720;23.344;2023-03-01T05:31:54;6.35;;;3.88;;
59263;SDS011;45030;42.720;23.344;2023-03-01T05:34:34;4.38;;;3.38;;
59263;SDS011;45030;42.720;23.344;2023-03-01T05:37:00;4.60;;;3.50;;
59263;SDS011;45030;42.720;23.344;2023-03-01T05:39:26;8.63;;;4.70;;
59263;SDS011;45030;42.720;23.344;2023-03-01T05:41:52;4.95;;;3.92;;
59263;SDS011;45030;42.720;23.344;2023-03-01T05:44:18;5.90;;;4.20;;
59263;SDS011;45030;42.720;23.344;2023-03-01T05:46:43;8.60;;;5.80;;
59263;SDS011;45030;42.720;23.344;2023-03-01T05:49:09;6.18;;;3.72;;
59263;SDS011;45030;42.720;23.344;2023-03-01T05:51:35;5.03;;;3.88;;
59263;SDS011;45030;42.720;23.344;2023-03-01T05:54:00;6.43;;;4.28;;
59263;SDS011;45030;42.720;23.344;2023-03-01T05:56:25;7.47;;;4.28;;
59263;SDS011;45030;42.720;23.344;2023-03-01T05:58:50;5.38;;;3.60;;
59263;SDS011;45030;42.720;23.344;2023-03-01T06:01:16;4.97;;;3.58;;
59263;SDS011;45030;42.720;23.344;2023-03-01T06:03:41;4.63;;;3.47;;
59263;SDS011;45030;42.720;23.344;2023-03-01T06:06:06;10.70;;;4.20;;
59263;SDS011;45030;42.720;23.344;2023-03-01T06:08:31;7.38;;;4.22;;
59263;SDS011;45030;42.720;23.344;2023-03-01T06:10:57;8.30;;;4.40;;
59263;SDS011;45030;42.720;23.344;2023-03-01T06:13:22;6.95;;;5.13;;
59263;SDS011;45030;42.720;23.344;2023-03-01T06:15:48;7.57;;;3.83;;
59263;SDS011;45030;42.720;23.344;2023-03-01T06:18:13;7.05;;;4.45;;
59263;SDS011;45030;42.720;23.344;2023-03-01T06:20:39;8.52;;;4.20;;
59263;SDS011;45030;42.720;23.344;2023-03-01T06:23:04;5.13;;;3.65;;
59263;SDS011;45030;42.720;23.344;2023-03-01T06:25:29;4.13;;;3.10;;
59263;SDS011;45030;42.720;23.344;2023-03-01T06:27:55;6.75;;;3.53;;
59263;SDS011;45030;42.720;23.344;2023-03-01T06:30:21;4.03;;;2.92;;
59263;SDS011;45030;42.720;23.344;2023-03-01T06:32:46;3.63;;;3.17;;
59263;SDS011;45030;42.720;23.344;2023-03-01T06:35:13;5.32;;;4.15;;
59263;SDS011;45030;42.720;23.344;2023-03-01T06:37:39;5.40;;;3.80;;
59263;SDS011;45030;42.720;23.344;2023-03-01T06:40:05;7.07;;;4.25;;
59263;SDS011;45030;42.720;23.344;2023-03-01T06:42:42;5.18;;;4.10;;
59263;SDS011;45030;42.720;23.344;2023-03-01T06:45:08;5.10;;;4.00;;
59263;SDS011;45030;42.720;23.344;2023-03-01T06:47:34;5.50;;;3.55;;
59263;SDS011;45030;42.720;23.344;2023-03-01T06:49:59;6.25;;;4.10;;
59263;SDS011;45030;42.720;23.344;2023-03-01T06:52:25;5.50;;;3.70;;
59263;SDS011;45030;42.720;23.344;2023-03-01T06:54:50;6.70;;;3.95;;
59263;SDS011;45030;42.720;23.344;2023-03-01T06:57:15;4.43;;;3.15;;
59263;SDS011;45030;42.720;23.344;2023-03-01T06:59:41;7.55;;;3.55;;
59263;SDS011;45030;42.720;23.344;2023-03-01T07:02:06;5.32;;;2.85;;
59263;SDS011;45030;42.720;23.344;2023-03-01T07:04:31;5.72;;;3.35;;
59263;SDS011;45030;42.720;23.344;2023-03-01T07:06:56;4.35;;;3.00;;
59263;SDS011;45030;42.720;23.344;2023-03-01T07:09:22;6.38;;;3.88;;
59263;SDS011;45030;42.720;23.344;2023-03-01T07:11:48;5.78;;;3.75;;
59263;SDS011;45030;42.720;23.344;2023-03-01T07:14:13;4.32;;;3.47;;
59263;SDS011;45030;42.720;23.344;2023-03-01T07:16:39;3.55;;;2.75;;
59263;SDS011;45030;42.720;23.344;2023-03-01T07:19:04;78.80;;;38.55;;
59263;SDS011;45030;42.720;23.344;2023-03-01T07:21:30;78.90;;;39.30;;
59263;SDS011;45030;42.720;23.344;2023-03-01T07:23:55;288.23;;;119.30;;
59263;SDS011;45030;42.720;23.344;2023-03-01T07:26:21;316.00;;;115.88;;
59263;SDS011;45030;42.720;23.344;2023-03-01T07:28:46;219.85;;;86.55;;
59263;SDS011;45030;42.720;23.344;2023-03-01T07:31:11;94.68;;;37.85;;
59263;SDS011;45030;42.720;23.344;2023-03-01T07:33:36;97.75;;;41.30;;
59263;SDS011;45030;42.720;23.344;2023-03-01T07:36:02;101.65;;;43.83;;
59263;SDS011;45030;42.720;23.344;2023-03-01T07:38:28;69.10;;;33.65;;
59263;SDS011;45030;42.720;23.344;2023-03-01T07:40:57;59.55;;;28.40;;
59263;SDS011;45030;42.720;23.344;2023-03-01T07:43:23;51.50;;;28.85;;
59263;SDS011;45030;42.720;23.344;2023-03-01T07:45:49;69.28;;;39.35;;
59263;SDS011;45030;42.720;23.344;2023-03-01T07:48:14;39.33;;;23.55;;
59263;SDS011;45030;42.720;23.344;2023-03-01T07:50:39;37.60;;;22.73;;
59263;SDS011;45030;42.720;23.344;2023-03-01T07:53:04;22.58;;;14.23;;
59263;SDS011;45030;42.720;23.344;2023-03-01T07:55:30;30.00;;;23.60;;
59263;SDS011;45030;42.720;23.344;2023-03-01T07:57:55;67.35;;;38.10;;
59263;SDS011;45030;42.720;23.344;2023-03-01T08:00:20;51.78;;;32.30;;
59263;SDS011;45030;42.720;23.344;2023-03-01T08:02:45;31.45;;;22.85;;
59263;SDS011;45030;42.720;23.344;2023-03-01T08:05:11;12.73;;;6.93;;
59263;SDS011;45030;42.720;23.344;2023-03-01T08:07:36;9.30;;;5.88;;
59263;SDS011;45030;42.720;23.344;2023-03-01T08:10:02;11.75;;;8.18;;
59263;SDS011;45030;42.720;23.344;2023-03-01T08:12:27;10.23;;;6.93;;
59263;SDS011;45030;42.720;23.344;2023-03-01T08:14:53;7.05;;;5.20;;
59263;SDS011;45030;42.720;23.344;2023-03-01T08:17:18;12.82;;;10.20;;
59263;SDS011;45030;42.720;23.344;2023-03-01T08:19:44;17.35;;;15.50;;
59263;SDS011;45030;42.720;23.344;2023-03-01T08:22:09;20.50;;;15.85;;
59263;SDS011;45030;42.720;23.344;2023-03-01T08:24:35;8.40;;;5.90;;
59263;SDS011;45030;42.720;23.344;2023-03-01T08:27:00;10.68;;;9.57;;
59263;SDS011;45030;42.720;23.344;2023-03-01T08:29:27;6.70;;;6.10;;
59263;SDS011;45030;42.720;23.344;2023-03-01T08:31:52;4.00;;;3.17;;
59263;SDS011;45030;42.720;23.344;2023-03-01T08:34:18;4.22;;;2.75;;
59263;SDS011;45030;42.720;23.344;2023-03-01T08:36:44;2.70;;;2.30;;
59263;SDS011;45030;42.720;23.344;2023-03-01T08:39:11;4.57;;;2.83;;
59263;SDS011;45030;42.720;23.344;2023-03-01T08:41:36;4.28;;;2.20;;
59263;SDS011;45030;42.720;23.344;2023-03-01T08:44:02;3.08;;;2.75;;
59263;SDS011;45030;42.720;23.344;2023-03-01T08:46:28;4.20;;;3.72;;
59263;SDS011;45030;42.720;23.344;2023-03-01T08:48:53;6.75;;;3.38;;
59263;SDS011;45030;42.720;23.344;2023-03-01T08:51:19;3.40;;;2.80;;
59263;SDS011;45030;42.720;23.344;2023-03-01T08:53:45;3.75;;;3.35;;
59263;SDS011;45030;42.720;23.344;2023-03-01T08:56:10;5.75;;;2.65;;
59263;SDS011;45030;42.720;23.344;2023-03-01T08:58:36;3.25;;;2.85;;
59263;SDS011;45030;42.720;23.344;2023-03-01T09:01:08;4.30;;;3.35;;
59263;SDS011;45030;42.720;23.344;2023-03-01T09:03:34;4.63;;;3.60;;
59263;SDS011;45030;42.720;23.344;2023-03-01T09:05:59;5.82;;;3.58;;
59263;SDS011;45030;42.720;23.344;2023-03-01T09:08:25;2.95;;;2.50;;
59263;SDS011;45030;42.720;23.344;2023-03-01T09:10:50;4.10;;;3.10;;
59263;SDS011;45030;42.720;23.344;2023-03-01T09:13:15;2.97;;;2.53;;
59263;SDS011;45030;42.720;23.344;2023-03-01T09:15:40;3.30;;;1.92;;
59263;SDS011;45030;42.720;23.344;2023-03-01T09:18:06;4.32;;;2.42;;
59263;SDS011;45030;42.720;23.344;2023-03-01T09:20:31;3.65;;;2.40;;
59263;SDS011;45030;42.720;23.344;2023-03-01T09:22:57;5.57;;;3.25;;
59263;SDS011;45030;42.720;23.344;2023-03-01T09:25:22;3.78;;;2.88;;
59263;SDS011;45030;42.720;23.344;2023-03-01T09:27:50;3.88;;;2.80;;
59263;SDS011;45030;42.720;23.344;2023-03-01T09:30:15;4.15;;;2.80;;
59263;SDS011;45030;42.720;23.344;2023-03-01T09:32:40;3.55;;;2.35;;
59263;SDS011;45030;42.720;23.344;2023-03-01T09:35:07;5.75;;;3.20;;
59263;SDS011;45030;42.720;23.344;2023-03-01T09:37:33;3.05;;;2.30;;
59263;SDS011;45030;42.720;23.344;2023-03-01T09:39:58;5.22;;;2.65;;
59263;SDS011;45030;42.720;23.344;2023-03-01T09:42:24;5.55;;;2.67;;
59263;SDS011;45030;42.720;23.344;2023-03-01T09:44:51;4.57;;;2.35;;
59263;SDS011;45030;42.720;23.344;2023-03-01T09:47:19;5.88;;;3.40;;
59263;SDS011;45030;42.720;23.344;2023-03-01T09:49:45;3.65;;;2.38;;
59263;SDS011;45030;42.720;23.344;2023-03-01T09:52:25;3.25;;;2.17;;
59263;SDS011;45030;42.720;23.344;2023-03-01T09:54:54;3.63;;;1.90;;
59263;SDS011;45030;42.720;23.344;2023-03-01T09:57:30;3.45;;;2.05;;
59263;SDS011;45030;42.720;23.344;2023-03-01T10:02:31;1.73;;;1.23;;
59263;SDS011;45030;42.720;23.344;2023-03-01T10:05:05;1.83;;;1.48;;
59263;SDS011;45030;42.720;23.344;2023-03-01T10:10:00;2.10;;;1.53;;
59263;SDS011;45030;42.720;23.344;2023-03-01T10:12:36;2.33;;;1.98;;
59263;SDS011;45030;42.720;23.344;2023-03-01T10:15:04;4.43;;;1.48;;
59263;SDS011;45030;42.720;23.344;2023-03-01T10:17:33;3.60;;;2.03;;
59263;SDS011;45030;42.720;23.344;2023-03-01T10:20:21;2.85;;;1.50;;
59263;SDS011;45030;42.720;23.344;2023-03-01T10:22:45;2.72;;;1.80;;
59263;SDS011;45030;42.720;23.344;2023-03-01T10:25:15;2.08;;;1.25;;
59263;SDS011;45030;42.720;23.344;2023-03-01T10:32:37;3.45;;;2.22;;
59263;SDS011;45030;42.720;23.344;2023-03-01T10:40:29;1.75;;;1.52;;
59263;SDS011;45030;42.720;23.344;2023-03-01T10:42:54;3.33;;;1.85;;
59263;SDS011;45030;42.720;23.344;2023-03-01T10:45:33;1.60;;;1.45;;
59263;SDS011;45030;42.720;23.344;2023-03-01T10:48:08;2.83;;;1.75;;
59263;SDS011;45030;42.720;23.344;2023-03-01T10:50:36;2.97;;;2.53;;
59263;SDS011;45030;42.720;23.344;2023-03-01T10:53:03;2.88;;;1.40;;
59263;SDS011;45030;42.720;23.344;2023-03-01T11:00:31;2.53;;;1.85;;
59263;SDS011;45030;42.720;23.344;2023-03-01T11:05:23;6.45;;;2.50;;
59263;SDS011;45030;42.720;23.344;2023-03-01T11:07:58;3.30;;;1.58;;
59263;SDS011;45030;42.720;23.344;2023-03-01T11:10:25;1.63;;;1.30;;
59263;SDS011;45030;42.720;23.344;2023-03-01T11:12:51;2.33;;;1.70;;
59263;SDS011;45030;42.720;23.344;2023-03-01T11:15:24;5.55;;;2.55;;
59263;SDS011;45030;42.720;23.344;2023-03-01T11:17:50;2.10;;;1.73;;
59263;SDS011;45030;42.720;23.344;2023-03-01T11:20:19;2.17;;;1.60;;
59263;SDS011;45030;42.720;23.344;2023-03-01T11:22:55;2.67;;;1.63;;
59263;SDS011;45030;42.720;23.344;2023-03-01T11:25:23;1.60;;;1.48;;
59263;SDS011;45030;42.720;23.344;2023-03-01T11:27:49;5.55;;;2.10;;
59263;SDS011;45030;42.720;23.344;2023-03-01T11:32:43;14.30;;;7.75;;
59263;SDS011;45030;42.720;23.344;2023-03-01T11:35:15;15.77;;;9.18;;
59263;SDS011;45030;42.720;23.344;2023-03-01T11:40:27;145.10;;;59.58;;
59263;SDS011;45030;42.720;23.344;2023-03-01T11:45:26;30.38;;;13.45;;
59263;SDS011;45030;42.720;23.344;2023-03-01T11:50:39;37.88;;;18.17;;
59263;SDS011;45030;42.720;23.344;2023-03-01T12:01:00;9.60;;;8.07;;
59263;SDS011;45030;42.720;23.344;2023-03-01T12:03:41;16.20;;;9.77;;
59263;SDS011;45030;42.720;23.344;2023-03-01T12:06:22;18.08;;;14.85;;
59263;SDS011;45030;42.720;23.344;2023-03-01T12:11:47;3.17;;;2.38;;
59263;SDS011;45030;42.720;23.344;2023-03-01T12:19:52;3.22;;;2.70;;
59263;SDS011;45030;42.720;23.344;2023-03-01T12:22:30;2.63;;;1.65;;
59263;SDS011;45030;42.720;23.344;2023-03-01T12:25:08;4.25;;;2.60;;
59263;SDS011;45030;42.720;23.344;2023-03-01T12:37:40;5.20;;;2.10;;
59263;SDS011;45030;42.720;23.344;2023-03-01T12:50:01;4.13;;;1.50;;
59263;SDS011;45030;42.720;23.344;2023-03-01T12:52:40;1.92;;;1.52;;
59263;SDS011;45030;42.720;23.344;2023-03-01T12:55:20;2.65;;;1.55;;
59263;SDS011;45030;42.720;23.344;2023-03-01T12:57:57;3.28;;;1.90;;
59263;SDS011;45030;42.720;23.344;2023-03-01T13:00:28;1.75;;;1.40;;
59263;SDS011;45030;42.720;23.344;2023-03-01T13:03:00;3.03;;;2.17;;
59263;SDS011;45030;42.720;23.344;2023-03-01T13:17:56;4.68;;;2.97;;
59263;SDS011;45030;42.720;23.344;2023-03-01T13:21:07;2.28;;;1.58;;
59263;SDS011;45030;42.720;23.344;2023-03-01T13:35:55;3.35;;;2.03;;
59263;SDS011;45030;42.720;23.344;2023-03-01T13:41:06;3.88;;;2.25;;
59263;SDS011;45030;42.720;23.344;2023-03-01T13:43:35;5.18;;;2.38;;
59263;SDS011;45030;42.720;23.344;2023-03-01T13:46:01;3.95;;;1.98;;
59263;SDS011;45030;42.720;23.344;2023-03-01T13:48:32;4.40;;;2.78;;
59263;SDS011;45030;42.720;23.344;2023-03-01T13:51:02;3.35;;;1.88;;
59263;SDS011;45030;42.720;23.344;2023-03-01T13:53:29;3.67;;;2.10;;
59263;SDS011;45030;42.720;23.344;2023-03-01T13:55:56;2.17;;;1.55;;
59263;SDS011;45030;42.720;23.344;2023-03-01T13:58:24;6.93;;;3.25;;
59263;SDS011;45030;42.720;23.344;2023-03-01T14:00:57;5.63;;;2.78;;
59263;SDS011;45030;42.720;23.344;2023-03-01T14:03:23;3.05;;;2.47;;
59263;SDS011;45030;42.720;23.344;2023-03-01T14:08:23;3.67;;;2.83;;
59263;SDS011;45030;42.720;23.344;2023-03-01T14:18:47;6.20;;;3.45;;
59263;SDS011;45030;42.720;23.344;2023-03-01T14:21:13;27.92;;;15.50;;
59263;SDS011;45030;42.720;23.344;2023-03-01T14:23:39;6.30;;;4.93;;
59263;SDS011;45030;42.720;23.344;2023-03-01T14:26:07;5.78;;;4.35;;
59263;SDS011;45030;42.720;23.344;2023-03-01T14:28:33;4.32;;;3.10;;
59263;SDS011;45030;42.720;23.344;2023-03-01T14:31:02;5.82;;;2.70;;
59263;SDS011;45030;42.720;23.344;2023-03-01T14:33:31;6.13;;;2.95;;
59263;SDS011;45030;42.720;23.344;2023-03-01T14:36:05;5.85;;;3.05;;
59263;SDS011;45030;42.720;23.344;2023-03-01T14:38:38;4.00;;;2.78;;
59263;SDS011;45030;42.720;23.344;2023-03-01T14:41:07;6.53;;;3.47;;
59263;SDS011;45030;42.720;23.344;2023-03-01T14:43:34;10.13;;;4.65;;
59263;SDS011;45030;42.720;23.344;2023-03-01T14:46:00;5.38;;;3.17;;
59263;SDS011;45030;42.720;23.344;2023-03-01T14:48:26;5.28;;;2.80;;
59263;SDS011;45030;42.720;23.344;2023-03-01T14:50:52;8.05;;;3.47;;
59263;SDS011;45030;42.720;23.344;2023-03-01T14:53:21;4.30;;;2.97;;
59263;SDS011;45030;42.720;23.344;2023-03-01T14:55:48;3.97;;;2.92;;
59263;SDS011;45030;42.720;23.344;2023-03-01T14:58:18;5.50;;;4.05;;
59263;SDS011;45030;42.720;23.344;2023-03-01T15:00:47;5.68;;;4.28;;
59263;SDS011;45030;42.720;23.344;2023-03-01T15:03:14;5.53;;;4.07;;
59263;SDS011;45030;42.720;23.344;2023-03-01T15:05:42;7.32;;;3.95;;
59263;SDS011;45030;42.720;23.344;2023-03-01T15:08:11;25.80;;;7.53;;
59263;SDS011;45030;42.720;23.344;2023-03-01T15:10:55;13.65;;;5.55;;
59263;SDS011;45030;42.720;23.344;2023-03-01T15:13:24;13.70;;;6.72;;
59263;SDS011;45030;42.720;23.344;2023-03-01T15:15:50;6.68;;;3.88;;
59263;SDS011;45030;42.720;23.344;2023-03-01T15:18:17;8.00;;;3.58;;
59263;SDS011;45030;42.720;23.344;2023-03-01T15:20:43;5.65;;;3.47;;
59263;SDS011;45030;42.720;23.344;2023-03-01T15:25:43;6.38;;;2.92;;
59263;SDS011;45030;42.720;23.344;2023-03-01T15:28:12;6.90;;;4.35;;
59263;SDS011;45030;42.720;23.344;2023-03-01T15:30:42;6.73;;;3.57;;
59263;SDS011;45030;42.720;23.344;2023-03-01T15:33:27;6.88;;;3.72;;
59263;SDS011;45030;42.720;23.344;2023-03-01T15:35:54;7.63;;;4.68;;
59263;SDS011;45030;42.720;23.344;2023-03-01T15:38:24;8.73;;;4.85;;
59263;SDS011;45030;42.720;23.344;2023-03-01T15:40:50;11.00;;;6.90;;
59263;SDS011;45030;42.720;23.344;2023-03-01T15:45:59;6.00;;;3.75;;
59263;SDS011;45030;42.720;23.344;2023-03-01T15:48:24;5.63;;;3.28;;
59263;SDS011;45030;42.720;23.344;2023-03-01T15:50:54;5.00;;;3.50;;
59263;SDS011;45030;42.720;23.344;2023-03-01T15:53:20;7.93;;;5.22;;
59263;SDS011;45030;42.720;23.344;2023-03-01T15:55:45;13.20;;;8.73;;
59263;SDS011;45030;42.720;23.344;2023-03-01T15:58:15;7.15;;;5.97;;
59263;SDS011;45030;42.720;23.344;2023-03-01T16:00:42;12.20;;;9.95;;
59263;SDS011;45030;42.720;23.344;2023-03-01T16:03:08;6.47;;;5.10;;
59263;SDS011;45030;42.720;23.344;2023-03-01T16:05:36;9.45;;;6.15;;
59263;SDS011;45030;42.720;23.344;2023-03-01T16:08:02;28.73;;;18.08;;
59263;SDS011;45030;42.720;23.344;2023-03-01T16:10:28;17.88;;;10.23;;
59263;SDS011;45030;42.720;23.344;2023-03-01T16:12:53;25.15;;;18.13;;
59263;SDS011;45030;42.720;23.344;2023-03-01T16:15:20;21.65;;;13.93;;
59263;SDS011;45030;42.720;23.344;2023-03-01T16:17:46;28.83;;;16.15;;
59263;SDS011;45030;42.720;23.344;2023-03-01T16:20:12;21.17;;;14.88;;
59263;SDS011;45030;42.720;23.344;2023-03-01T16:22:40;32.38;;;18.33;;
59263;SDS011;45030;42.720;23.344;2023-03-01T16:25:05;23.40;;;16.35;;
59263;SDS011;45030;42.720;23.344;2023-03-01T16:27:33;124.05;;;68.50;;
59263;SDS011;45030;42.720;23.344;2023-03-01T16:29:58;106.72;;;58.58;;
59263;SDS011;45030;42.720;23.344;2023-03-01T16:32:23;83.30;;;38.67;;
59263;SDS011;45030;42.720;23.344;2023-03-01T16:34:48;240.75;;;110.63;;
59263;SDS011;45030;42.720;23.344;2023-03-01T16:37:14;174.68;;;74.82;;